Time;durP1;ratioP1;P1;durP2;ratioP2;P2;SDS_P1;SDS_P2;PMS_P1;PMS_P2;Temp;Humidity;BMP_temperature;BMP_pressure;BME280_temperature;BME280_humidity;BME280_pressure;Samples;Min_cycle;Max_cycle;Signal;HPM_P1;HPM_P2
2024/03/06 00:01:42;;;;;;;5.88;3.03;;;5.80;99.90;;;;;;5009631;28;20038;-71
2024/03/06 00:04:08;;;;;;;5.37;3.33;;;5.90;99.90;;;;;;5008996;28;20034;-68
2024/03/06 00:06:33;;;;;;;6.53;3.33;;;5.80;99.90;;;;;;5044957;28;20035;-68
2024/03/06 00:09:00;;;;;;;6.00;3.40;;;5.80;99.90;;;;;;5049433;28;20163;-67
2024/03/06 00:11:25;;;;;;;;;;;5.90;99.90;;;;;;5049829;28;20020;-67
2024/03/06 00:13:51;;;;;;;10.27;4.20;;;5.60;99.90;;;;;;5048877;28;20429;-68
2024/03/06 00:16:17;;;;;;;9.00;4.57;;;5.70;99.90;;;;;;5048906;28;20025;-68
2024/03/06 00:18:42;;;;;;;8.93;4.93;;;5.80;99.90;;;;;;5049542;28;20063;-68
2024/03/06 00:21:09;;;;;;;9.40;5.17;;;5.70;99.90;;;;;;5038770;28;20021;-68
2024/03/06 00:23:35;;;;;;;8.18;4.75;;;5.80;99.90;;;;;;5029466;28;20025;-68
2024/03/06 00:26:02;;;;;;;11.38;4.40;;;6.00;99.90;;;;;;5029476;28;20022;-67
2024/03/06 00:28:28;;;;;;;10.35;4.95;;;6.00;99.90;;;;;;5029275;28;20405;-68
2024/03/06 00:30:53;;;;;;;6.67;4.23;;;6.00;99.90;;;;;;5029526;28;20025;-67
2024/03/06 00:33:19;;;;;;;8.77;5.17;;;5.90;99.90;;;;;;5029276;28;20338;-67
2024/03/06 00:35:44;;;;;;;11.10;4.27;;;5.90;99.90;;;;;;5027527;28;20065;-67
2024/03/06 00:38:10;;;;;;;9.57;5.10;;;5.80;99.90;;;;;;5029057;28;20029;-67
2024/03/06 00:40:35;;;;;;;8.03;4.47;;;5.90;99.90;;;;;;5029194;28;20589;-67
2024/03/06 00:43:01;;;;;;;7.93;4.27;;;5.90;99.90;;;;;;5028900;28;20234;-71
2024/03/06 00:45:26;;;;;;;6.77;4.27;;;5.70;99.90;;;;;;5028928;28;20128;-69
2024/03/06 00:47:52;;;;;;;6.13;3.93;;;5.70;99.90;;;;;;5028559;28;20025;-67
2024/03/06 00:50:21;;;;;;;7.10;4.10;;;5.80;99.90;;;;;;5028332;28;20021;-68
2024/03/06 00:52:46;;;;;;;9.45;4.13;;;5.80;99.90;;;;;;5023612;28;20029;-68
2024/03/06 00:55:12;;;;;;;5.80;3.40;;;5.90;99.90;;;;;;5009296;28;20490;-67
2024/03/06 00:57:37;;;;;;;7.03;4.30;;;5.70;99.90;;;;;;5008590;28;20539;-68
2024/03/06 01:00:10;;;;;;;4.73;3.43;;;5.80;99.90;;;;;;5008854;28;20040;-69
2024/03/06 01:02:36;;;;;;;7.40;4.07;;;5.80;99.90;;;;;;5007448;28;20033;-66
2024/03/06 01:05:09;;;;;;;10.35;4.70;;;5.80;99.90;;;;;;5012656;28;20029;-69
2024/03/06 01:07:37;;;;;;;7.20;4.53;;;5.70;99.90;;;;;;5034869;28;20037;-70
2024/03/06 01:10:06;;;;;;;11.32;4.82;;;5.70;99.90;;;;;;5032020;28;20156;-71
2024/03/06 01:12:32;;;;;;;7.82;4.70;;;5.50;99.90;;;;;;5028184;28;20047;-71
2024/03/06 01:14:58;;;;;;;7.10;4.30;;;5.60;99.90;;;;;;5028131;28;20034;-70
2024/03/06 01:17:24;;;;;;;7.77;4.20;;;5.40;99.90;;;;;;5028316;28;20040;-71
2024/03/06 01:19:50;;;;;;;6.30;4.63;;;5.60;99.90;;;;;;5028206;28;20272;-71
2024/03/06 01:22:15;;;;;;;6.28;3.92;;;5.80;99.90;;;;;;5028261;28;20272;-69
2024/03/06 01:24:41;;;;;;;7.27;4.07;;;5.90;99.90;;;;;;5027585;28;20555;-68
2024/03/06 01:27:07;;;;;;;8.20;4.47;;;5.90;99.90;;;;;;5027812;28;20057;-68
2024/03/06 01:29:32;;;;;;;7.47;4.73;;;6.00;99.90;;;;;;5026004;28;20029;-70
2024/03/06 01:31:59;;;;;;;6.90;4.33;;;5.80;99.90;;;;;;5027806;28;20037;-68
2024/03/06 01:34:25;;;;;;;;;;;5.90;99.90;;;;;;5026533;28;20513;-68
2024/03/06 01:36:54;;;;;;;6.05;4.55;;;6.00;99.90;;;;;;5027804;28;19954;-68
2024/03/06 01:39:20;;;;;;;9.32;5.68;;;6.00;99.90;;;;;;5027846;28;20025;-68
2024/03/06 01:41:50;;;;;;;8.20;5.38;;;5.90;99.90;;;;;;5028302;28;20164;-71
2024/03/06 01:44:17;;;;;;;11.90;6.07;;;6.00;99.90;;;;;;5028089;28;20120;-69
2024/03/06 01:46:46;;;;;;;9.00;5.40;;;6.00;99.90;;;;;;5027937;28;20552;-67
2024/03/06 01:49:18;;;;;;;14.20;6.10;;;5.90;99.90;;;;;;5028082;28;20615;-68
2024/03/06 01:51:49;;;;;;;10.93;5.75;;;6.00;99.90;;;;;;5028255;28;20030;-68
2024/03/06 01:54:16;;;;;;;11.30;5.70;;;6.10;99.90;;;;;;5011575;28;20045;-67
2024/03/06 01:56:45;;;;;;;10.75;6.47;;;6.10;99.90;;;;;;5008413;28;20053;-67
2024/03/06 01:59:16;;;;;;;11.85;5.88;;;6.10;99.90;;;;;;5007780;28;20060;-67
2024/03/06 02:01:43;;;;;;;8.48;5.75;;;6.10;99.90;;;;;;5008031;28;20022;-67
2024/03/06 02:04:11;;;;;;;;;;;6.00;99.90;;;;;;5007917;28;20061;-68
2024/03/06 02:06:39;;;;;;;11.93;5.93;;;6.00;99.90;;;;;;5007747;28;20442;-67
2024/03/06 02:09:06;;;;;;;10.50;6.05;;;6.10;99.90;;;;;;5007545;28;20501;-68
2024/03/06 02:11:32;;;;;;;12.55;5.78;;;6.10;99.90;;;;;;5032448;28;20032;-68
2024/03/06 02:13:58;;;;;;;12.93;6.70;;;6.10;99.90;;;;;;5047212;28;20422;-68
2024/03/06 02:16:24;;;;;;;11.82;7.07;;;6.10;99.90;;;;;;5047376;28;20032;-67
2024/03/06 02:18:59;;;;;;;11.17;7.13;;;6.00;99.90;;;;;;5047151;28;20029;-67
2024/03/06 02:21:25;;;;;;;15.55;7.45;;;6.00;99.90;;;;;;5047152;28;20028;-67
2024/03/06 02:23:51;;;;;;;13.00;7.60;;;6.00;99.90;;;;;;5047153;28;20033;-69
2024/03/06 02:26:18;;;;;;;;;;;6.00;99.90;;;;;;5047535;28;20035;-67
2024/03/06 02:28:51;;;;;;;17.60;7.43;;;6.00;99.90;;;;;;5047158;28;20009;-67
2024/03/06 02:31:17;;;;;;;12.00;7.50;;;6.00;99.90;;;;;;5047349;28;20036;-72
2024/03/06 02:33:47;;;;;;;12.57;6.60;;;6.00;99.90;;;;;;5047172;28;20041;-67
2024/03/06 02:36:14;;;;;;;13.95;7.47;;;6.00;99.90;;;;;;5047506;28;20033;-67
2024/03/06 02:38:40;;;;;;;;;;;5.90;99.90;;;;;;5047321;28;20036;-67
2024/03/06 02:41:06;;;;;;;11.10;6.40;;;6.00;99.90;;;;;;5046963;28;19909;-67
2024/03/06 02:43:33;;;;;;;10.75;6.10;;;6.10;99.90;;;;;;5045683;28;20404;-68
2024/03/06 02:45:59;;;;;;;12.25;6.82;;;6.00;99.90;;;;;;5047383;28;20043;-70
2024/03/06 02:48:24;;;;;;;9.95;7.00;;;6.00;99.90;;;;;;5047742;28;20598;-68
2024/03/06 02:50:50;;;;;;;8.07;6.07;;;6.00;99.90;;;;;;5047329;28;20033;-68
2024/03/06 02:53:16;;;;;;;11.50;6.17;;;6.00;99.90;;;;;;5038689;28;20803;-68
2024/03/06 02:55:41;;;;;;;11.07;5.67;;;5.90;99.90;;;;;;5023871;28;20121;-68
2024/03/06 02:58:07;;;;;;;15.60;6.37;;;5.90;99.90;;;;;;5026870;28;20038;-68
2024/03/06 03:00:32;;;;;;;13.00;5.77;;;5.80;99.90;;;;;;5026972;28;20018;-68
2024/03/06 03:02:58;;;;;;;10.13;5.95;;;5.80;99.90;;;;;;5025237;28;20022;-69
2024/03/06 03:05:24;;;;;;;11.90;6.05;;;5.80;99.90;;;;;;5026874;28;20037;-68
2024/03/06 03:07:50;;;;;;;10.50;5.47;;;5.90;99.90;;;;;;5026988;28;20435;-68
2024/03/06 03:10:16;;;;;;;9.70;5.45;;;5.90;99.90;;;;;;5027054;28;20496;-68
2024/03/06 03:12:42;;;;;;;12.63;5.95;;;5.90;99.90;;;;;;5027348;28;20313;-68
2024/03/06 03:15:08;;;;;;;9.60;5.63;;;5.90;99.90;;;;;;5027254;28;20029;-67
2024/03/06 03:17:34;;;;;;;;;;;6.00;99.90;;;;;;5030544;28;20033;-69
2024/03/06 03:20:00;;;;;;;6.90;4.53;;;5.90;99.90;;;;;;5030640;28;20411;-69
2024/03/06 03:22:26;;;;;;;7.47;5.53;;;5.80;99.90;;;;;;5028524;28;20377;-68
2024/03/06 03:24:51;;;;;;;10.77;5.43;;;5.90;99.90;;;;;;5030119;28;20046;-69
2024/03/06 03:27:17;;;;;;;9.40;4.77;;;5.90;99.90;;;;;;5030051;28;20271;-68
2024/03/06 03:29:43;;;;;;;6.97;4.57;;;5.80;99.90;;;;;;5030649;28;20029;-67
2024/03/06 03:32:09;;;;;;;6.25;4.22;;;5.80;99.90;;;;;;5029950;28;20036;-67
2024/03/06 03:34:35;;;;;;;6.23;4.03;;;5.90;99.90;;;;;;5029910;28;20044;-67
2024/03/06 03:37:01;;;;;;;6.43;4.60;;;5.80;99.90;;;;;;5030081;28;20041;-67
2024/03/06 03:39:27;;;;;;;7.00;4.32;;;5.80;99.90;;;;;;5028762;28;20064;-68
2024/03/06 03:41:53;;;;;;;6.22;3.97;;;5.90;99.90;;;;;;5030375;28;20047;-68
2024/03/06 03:44:19;;;;;;;10.75;4.13;;;5.80;99.90;;;;;;5030325;28;20033;-69
2024/03/06 03:46:45;;;;;;;6.68;4.38;;;5.70;99.90;;;;;;5030603;28;20451;-68
2024/03/06 03:49:11;;;;;;;4.95;3.67;;;5.80;99.90;;;;;;5029891;28;20057;-67
2024/03/06 03:51:40;;;;;;;9.80;3.83;;;5.60;99.90;;;;;;5029964;28;20033;-68
2024/03/06 03:54:06;;;;;;;7.65;4.00;;;5.60;99.90;;;;;;5014889;28;20042;-70
2024/03/06 03:56:32;;;;;;;15.85;4.45;;;5.60;99.90;;;;;;5009341;28;20060;-68
2024/03/06 03:58:58;;;;;;;7.43;3.80;;;5.50;99.90;;;;;;5009611;28;20069;-67
2024/03/06 04:01:24;;;;;;;7.63;4.53;;;5.60;99.90;;;;;;5008620;28;20070;-69
2024/03/06 04:03:50;;;;;;;;;;;5.70;99.90;;;;;;5010277;28;20030;-67
2024/03/06 04:06:16;;;;;;;9.75;3.88;;;5.70;99.90;;;;;;5041854;28;19955;-67
2024/03/06 04:08:42;;;;;;;6.38;3.47;;;5.80;99.90;;;;;;5020503;28;20035;-67
2024/03/06 04:11:08;;;;;;;10.23;4.25;;;5.80;99.90;;;;;;5048972;28;20854;-68
2024/03/06 04:13:37;;;;;;;8.73;4.18;;;5.70;99.90;;;;;;5049435;28;20086;-67
2024/03/06 04:16:05;;;;;;;10.50;5.47;;;5.70;99.90;;;;;;5042131;28;20034;-68
2024/03/06 04:18:34;;;;;;;13.82;6.97;;;5.50;99.90;;;;;;5037105;28;20751;-68
2024/03/06 04:21:06;;;;;;;11.18;6.00;;;5.50;99.90;;;;;;5039240;28;20034;-69
2024/03/06 04:23:33;;;;;;;10.02;6.25;;;5.40;99.90;;;;;;5039560;28;20025;-68
2024/03/06 04:25:59;;;;;;;16.50;6.57;;;5.40;99.90;;;;;;5030823;28;20021;-68
2024/03/06 04:28:25;;;;;;;;;;;5.40;99.90;;;;;;5039857;28;20032;-68
2024/03/06 04:30:51;;;;;;;11.27;6.50;;;5.50;99.90;;;;;;5038460;28;19909;-69
2024/03/06 04:33:16;;;;;;;10.40;6.43;;;5.60;99.90;;;;;;5054915;28;20042;-68
2024/03/06 04:35:42;;;;;;;11.23;6.33;;;5.60;99.90;;;;;;5030248;28;20561;-69
2024/03/06 04:38:07;;;;;;;13.30;6.40;;;5.50;99.90;;;;;;5039446;28;20036;-68
2024/03/06 04:40:36;;;;;;;10.83;7.10;;;5.60;99.90;;;;;;5039742;28;20116;-69
2024/03/06 04:43:02;;;;;;;14.82;7.13;;;5.60;99.90;;;;;;5036949;28;20026;-69
2024/03/06 04:45:30;;;;;;;10.13;6.90;;;5.70;99.90;;;;;;5030854;28;20571;-68
2024/03/06 04:47:56;;;;;;;17.58;7.15;;;5.80;99.90;;;;;;5039305;28;20044;-69
2024/03/06 04:50:22;;;;;;;9.83;6.20;;;5.80;99.90;;;;;;5036694;28;20033;-69
2024/03/06 04:52:47;;;;;;;20.60;7.57;;;5.90;99.90;;;;;;5028804;28;20041;-69
2024/03/06 04:55:14;;;;;;;13.82;6.38;;;5.90;99.90;;;;;;5038932;28;20037;-69
2024/03/06 04:57:43;;;;;;;15.65;7.32;;;5.70;99.90;;;;;;5038740;28;20083;-69
2024/03/06 05:00:10;;;;;;;18.45;7.32;;;5.40;99.90;;;;;;5036620;28;20025;-69
2024/03/06 05:02:37;;;;;;;25.95;9.63;;;5.50;99.90;;;;;;5031295;28;20038;-69
2024/03/06 05:05:03;;;;;;;31.73;12.88;;;5.50;99.90;;;;;;5037895;28;20036;-69
2024/03/06 05:07:30;;;;;;;;;;;5.50;99.90;;;;;;5039317;28;20475;-67
2024/03/06 05:09:57;;;;;;;15.52;7.97;;;5.40;99.90;;;;;;5038917;28;20028;-69
2024/03/06 05:12:23;;;;;;;12.48;7.45;;;5.50;99.90;;;;;;5032390;28;20025;-68
2024/03/06 05:14:49;;;;;;;18.60;7.35;;;5.40;99.90;;;;;;5038122;28;20148;-69
2024/03/06 05:17:14;;;;;;;13.95;7.10;;;5.40;99.90;;;;;;5030149;28;20107;-68
2024/03/06 05:19:40;;;;;;;12.63;6.77;;;5.40;99.90;;;;;;5037586;28;20033;-68
2024/03/06 05:22:06;;;;;;;11.43;7.23;;;5.30;99.90;;;;;;5036485;28;20029;-69
2024/03/06 05:24:31;;;;;;;10.10;6.63;;;5.30;99.90;;;;;;5037586;28;20038;-69
2024/03/06 05:26:57;;;;;;;12.17;7.13;;;5.40;99.90;;;;;;5029650;28;20056;-68
2024/03/06 05:29:23;;;;;;;14.37;7.20;;;5.50;99.90;;;;;;5037882;28;20040;-68
2024/03/06 05:31:48;;;;;;;14.07;7.30;;;5.50;99.90;;;;;;5036790;28;20283;-68
2024/03/06 05:34:14;;;;;;;18.00;7.17;;;5.40;99.90;;;;;;5021395;28;20046;-68
2024/03/06 05:36:39;;;;;;;18.23;7.40;;;5.30;99.90;;;;;;5023318;28;20033;-67
2024/03/06 05:39:07;;;;;;;16.77;7.03;;;5.30;99.90;;;;;;5025899;28;20043;-68
2024/03/06 05:41:33;;;;;;;12.13;6.88;;;5.30;99.90;;;;;;5023834;28;20096;-68
2024/03/06 05:43:58;;;;;;;13.43;7.18;;;5.40;99.90;;;;;;5028743;28;20038;-69
2024/03/06 05:46:25;;;;;;;10.10;6.82;;;5.50;99.90;;;;;;5023027;28;20024;-68
2024/03/06 05:48:51;;;;;;;17.45;8.80;;;5.60;99.90;;;;;;5029180;28;20570;-68
2024/03/06 05:51:17;;;;;;;12.43;8.00;;;5.50;99.90;;;;;;5028512;28;20026;-68
2024/03/06 05:53:44;;;;;;;12.80;8.35;;;5.50;99.90;;;;;;5024463;28;20040;-68
2024/03/06 05:56:10;;;;;;;17.33;8.07;;;5.40;99.90;;;;;;5021784;28;20053;-68
2024/03/06 05:58:36;;;;;;;15.10;7.30;;;5.40;99.90;;;;;;5028140;28;20110;-70
2024/03/06 06:01:03;;;;;;;13.57;7.03;;;5.40;99.90;;;;;;5024664;28;20072;-68
2024/03/06 06:03:29;;;;;;;11.93;6.28;;;5.40;99.90;;;;;;5024023;28;20134;-68
2024/03/06 06:05:55;;;;;;;10.07;6.03;;;5.30;99.90;;;;;;5019580;28;20108;-68
2024/03/06 06:08:21;;;;;;;14.27;7.10;;;5.40;99.90;;;;;;5030868;28;20037;-69
2024/03/06 06:10:47;;;;;;;14.13;7.30;;;5.30;99.90;;;;;;5027404;28;20046;-69
2024/03/06 06:13:12;;;;;;;12.87;7.13;;;5.40;99.90;;;;;;5021940;28;20465;-72
2024/03/06 06:15:38;;;;;;;17.77;7.67;;;5.30;99.90;;;;;;5027606;28;20091;-69
2024/03/06 06:18:04;;;;;;;13.07;7.20;;;5.30;99.90;;;;;;5027259;28;20310;-69
2024/03/06 06:20:30;;;;;;;13.02;7.10;;;5.30;99.90;;;;;;5026729;28;20029;-68
2024/03/06 06:22:56;;;;;;;11.57;6.78;;;5.30;99.90;;;;;;5047583;28;20159;-69
2024/03/06 06:25:22;;;;;;;14.73;8.07;;;5.40;99.90;;;;;;5025286;28;20198;-68
2024/03/06 06:27:49;;;;;;;14.63;7.57;;;5.40;99.90;;;;;;5028729;28;20488;-68
2024/03/06 06:30:15;;;;;;;14.48;7.85;;;5.30;99.90;;;;;;5025856;28;20127;-68
2024/03/06 06:32:41;;;;;;;19.35;9.60;;;5.30;99.90;;;;;;5022879;28;20033;-68
2024/03/06 06:35:09;;;;;;;23.70;11.13;;;5.30;99.90;;;;;;5021034;28;20041;-68
2024/03/06 06:37:35;;;;;;;23.17;15.70;;;5.40;99.90;;;;;;5028348;28;20043;-68
2024/03/06 06:40:03;;;;;;;23.98;15.13;;;5.40;99.90;;;;;;5027678;28;20512;-68
2024/03/06 06:42:29;;;;;;;18.05;12.75;;;5.30;99.90;;;;;;5018729;28;20517;-68
2024/03/06 06:44:54;;;;;;;20.52;12.13;;;5.40;99.90;;;;;;5024641;28;20032;-68
2024/03/06 06:47:20;;;;;;;20.93;11.40;;;5.40;99.90;;;;;;5026401;28;20044;-68
2024/03/06 06:49:46;;;;;;;25.60;13.57;;;5.50;99.90;;;;;;5026417;28;20552;-68
2024/03/06 06:52:11;;;;;;;21.48;12.98;;;5.50;99.90;;;;;;5038434;28;20066;-70
2024/03/06 06:54:37;;;;;;;24.52;14.23;;;5.50;99.90;;;;;;5032360;28;20640;-71
2024/03/06 06:57:03;;;;;;;26.57;18.30;;;5.40;99.90;;;;;;5037735;28;20519;-71
2024/03/06 06:59:28;;;;;;;27.05;17.50;;;5.50;99.90;;;;;;5036729;28;20101;-70
2024/03/06 07:01:54;;;;;;;21.60;15.80;;;5.60;99.90;;;;;;5030361;28;20033;-68
2024/03/06 07:04:20;;;;;;;22.03;14.63;;;5.70;99.90;;;;;;5036439;28;20549;-71
2024/03/06 07:06:46;;;;;;;24.90;14.70;;;5.50;99.90;;;;;;5029942;28;20041;-70
2024/03/06 07:09:15;;;;;;;20.88;13.48;;;5.50;99.90;;;;;;5033577;28;20037;-71
2024/03/06 07:11:41;;;;;;;20.73;14.13;;;5.50;99.90;;;;;;5029643;28;20036;-74
2024/03/06 07:14:07;;;;;;;18.88;13.98;;;5.60;99.90;;;;;;5026109;28;20064;-69
2024/03/06 07:16:33;;;;;;;24.20;13.03;;;5.70;99.90;;;;;;5029880;28;20029;-73
2024/03/06 07:18:59;;;;;;;19.70;12.63;;;5.70;99.90;;;;;;5040355;28;20068;-71
2024/03/06 07:21:25;;;;;;;;;;;5.70;99.90;;;;;;5041490;28;20029;-71
2024/03/06 07:23:50;;;;;;;29.67;14.75;;;5.90;99.90;;;;;;5042134;28;19935;-73
2024/03/06 07:26:16;;;;;;;26.67;14.50;;;5.80;99.90;;;;;;5043878;28;20044;-72
2024/03/06 07:28:42;;;;;;;30.10;15.90;;;5.90;99.90;;;;;;5044664;28;20036;-71
2024/03/06 07:31:07;;;;;;;20.00;12.63;;;5.90;99.90;;;;;;5040469;28;20532;-70
2024/03/06 07:33:34;;;;;;;17.13;11.90;;;5.80;99.90;;;;;;5037837;28;20026;-71
2024/03/06 07:35:59;;;;;;;23.23;12.52;;;5.80;99.90;;;;;;5042705;28;20522;-72
2024/03/06 07:38:25;;;;;;;20.67;14.00;;;5.90;99.90;;;;;;5039408;28;20109;-71
2024/03/06 07:40:51;;;;;;;18.20;12.90;;;6.00;99.90;;;;;;5037505;28;20056;-70
2024/03/06 07:43:16;;;;;;;26.33;14.57;;;6.30;99.90;;;;;;5036378;28;20020;-69
2024/03/06 07:45:42;;;;;;;22.73;12.10;;;6.50;99.90;;;;;;5042995;28;20063;-69
2024/03/06 07:48:09;;;;;;;23.30;13.40;;;6.50;99.90;;;;;;5039442;28;20531;-69
2024/03/06 07:50:35;;;;;;;19.92;13.50;;;6.70;99.90;;;;;;5038663;28;20026;-71
2024/03/06 07:53:02;;;;;;;23.80;13.87;;;6.80;99.90;;;;;;5039222;28;20521;-72
2024/03/06 07:55:28;;;;;;;26.48;14.75;;;6.90;99.90;;;;;;5042894;28;20170;-71
2024/03/06 07:57:53;;;;;;;21.23;15.33;;;7.00;99.90;;;;;;5039472;28;20073;-69
2024/03/06 08:00:19;;;;;;;24.63;17.13;;;7.10;99.90;;;;;;5038212;28;20330;-68
2024/03/06 08:02:50;;;;;;;34.42;17.63;;;7.10;99.90;;;;;;5033655;28;20080;-69
2024/03/06 08:05:16;;;;;;;30.30;14.98;;;7.00;99.90;;;;;;5028404;28;20830;-71
2024/03/06 08:07:42;;;;;;;19.65;11.85;;;7.10;99.90;;;;;;5038289;28;20103;-69
2024/03/06 08:10:14;;;;;;;15.20;7.82;;;7.10;99.90;;;;;;5031945;28;20107;-69
2024/03/06 08:12:45;;;;;;;15.10;7.20;;;7.30;99.90;;;;;;5040645;28;20036;-69
2024/03/06 08:15:12;;;;;;;10.63;6.38;;;7.10;99.90;;;;;;5029089;28;20056;-73
2024/03/06 08:17:42;;;;;;;10.63;6.95;;;7.40;99.90;;;;;;5029955;28;20029;-70
2024/03/06 08:20:09;;;;;;;10.23;6.53;;;8.00;99.90;;;;;;5038183;28;20528;-72
2024/03/06 08:22:39;;;;;;;13.82;7.70;;;8.40;99.90;;;;;;5037407;28;20045;-69
2024/03/06 08:25:06;;;;;;;14.27;7.30;;;8.60;99.90;;;;;;5035525;28;20036;-68
2024/03/06 08:27:34;;;;;;;11.13;6.72;;;8.60;99.90;;;;;;5038482;28;20192;-68
2024/03/06 08:30:00;;;;;;;7.88;4.88;;;8.80;99.90;;;;;;5039231;28;20466;-68
2024/03/06 08:32:25;;;;;;;11.73;6.85;;;9.30;99.90;;;;;;5026530;28;20076;-68
2024/03/06 08:34:51;;;;;;;12.37;5.57;;;9.60;99.90;;;;;;5034202;28;20041;-68
2024/03/06 08:37:16;;;;;;;11.23;5.57;;;9.90;99.90;;;;;;5037286;28;20033;-69
2024/03/06 08:39:42;;;;;;;11.63;4.80;;;10.50;99.90;;;;;;5039501;28;20029;-68
2024/03/06 08:42:08;;;;;;;8.27;3.87;;;10.90;96.60;;;;;;5039823;28;20446;-68
2024/03/06 08:44:34;;;;;;;13.07;4.95;;;10.90;95.70;;;;;;5039564;28;20036;-67
2024/03/06 08:46:59;;;;;;;11.30;5.73;;;10.70;97.00;;;;;;5036888;28;20036;-69
2024/03/06 08:49:25;;;;;;;12.50;4.27;;;11.00;96.70;;;;;;5037812;28;20060;-69
2024/03/06 08:51:50;;;;;;;10.60;4.90;;;11.80;94.10;;;;;;5035875;28;20167;-68
2024/03/06 08:54:16;;;;;;;7.33;4.47;;;11.60;94.10;;;;;;5037615;28;20037;-68
2024/03/06 08:56:44;;;;;;;7.80;3.90;;;11.20;95.90;;;;;;5039810;28;20609;-68
2024/03/06 08:59:09;;;;;;;5.30;2.63;;;10.80;96.00;;;;;;5038062;28;20915;-70
2024/03/06 09:01:35;;;;;;;8.03;4.33;;;10.60;94.90;;;;;;5038913;28;20026;-68
2024/03/06 09:04:00;;;;;;;11.20;4.33;;;10.60;95.40;;;;;;5031330;28;20041;-70
2024/03/06 09:06:27;;;;;;;9.70;4.47;;;10.50;96.30;;;;;;5037693;28;20036;-68
2024/03/06 09:08:52;;;;;;;12.63;5.72;;;10.60;96.30;;;;;;5043072;28;20040;-69
2024/03/06 09:11:18;;;;;;;13.68;4.45;;;10.40;97.40;;;;;;5039982;28;20041;-70
2024/03/06 09:13:44;;;;;;;17.33;4.90;;;10.70;98.10;;;;;;5035437;28;20464;-69
2024/03/06 09:16:09;;;;;;;14.30;4.50;;;10.70;97.30;;;;;;5035205;28;20492;-70
2024/03/06 09:18:35;;;;;;;8.87;4.40;;;10.60;97.00;;;;;;5037766;28;20029;-67
2024/03/06 09:21:02;;;;;;;23.23;5.73;;;10.70;96.20;;;;;;5035510;28;20033;-68
2024/03/06 09:23:29;;;;;;;8.93;3.92;;;10.40;94.70;;;;;;5039066;28;20025;-68
2024/03/06 09:25:55;;;;;;;14.35;3.08;;;10.30;96.00;;;;;;5039856;28;20435;-68
2024/03/06 09:28:21;;;;;;;8.40;3.67;;;10.20;97.40;;;;;;5038801;28;20022;-68
2024/03/06 09:30:47;;;;;;;6.27;3.20;;;10.30;97.10;;;;;;5035913;28;20443;-69
2024/03/06 09:33:12;;;;;;;12.18;3.63;;;10.50;97.20;;;;;;5033587;28;20128;-68
2024/03/06 09:35:38;;;;;;;8.97;3.97;;;10.40;97.40;;;;;;5037392;28;20132;-68
2024/03/06 09:38:04;;;;;;;5.90;3.00;;;10.60;96.80;;;;;;5039355;28;20060;-68
2024/03/06 09:40:31;;;;;;;15.50;3.03;;;10.70;95.80;;;;;;5039362;28;20133;-68
2024/03/06 09:42:58;;;;;;;8.70;3.13;;;10.70;95.30;;;;;;5038656;28;20041;-68
2024/03/06 09:45:23;;;;;;;11.25;2.85;;;10.80;94.80;;;;;;5037326;28;20022;-69
2024/03/06 09:47:52;;;;;;;13.27;4.20;;;11.00;94.80;;;;;;5030900;28;20519;-69
2024/03/06 09:50:24;;;;;;;5.70;3.35;;;11.10;95.40;;;;;;5037289;28;20029;-68
2024/03/06 09:52:52;;;;;;;8.80;3.40;;;11.40;94.50;;;;;;5027637;28;20558;-68
2024/03/06 09:55:18;;;;;;;7.50;3.63;;;11.40;93.40;;;;;;5035420;28;20033;-68
2024/03/06 09:57:44;;;;;;;6.50;3.00;;;11.60;93.50;;;;;;5038088;28;20025;-69
2024/03/06 10:00:12;;;;;;;12.13;3.60;;;11.90;93.30;;;;;;5036502;28;20077;-71
2024/03/06 10:02:54;;;;;;;8.63;3.55;;;12.30;91.70;;;;;;5029758;28;20029;-67
2024/03/06 10:05:23;;;;;;;8.55;3.30;;;12.60;91.90;;;;;;5035870;28;20021;-79
2024/03/06 10:07:52;;;;;;;11.82;3.38;;;12.60;91.50;;;;;;5034953;28;20029;-68
2024/03/06 10:10:19;;;;;;;12.85;3.42;;;12.60;90.00;;;;;;5038198;28;20029;-68
2024/03/06 10:12:47;;;;;;;13.80;5.63;;;12.60;91.70;;;;;;5027879;28;20397;-68
2024/03/06 10:15:13;;;;;;;26.95;11.35;;;12.50;91.60;;;;;;5031097;28;20748;-67
2024/03/06 10:17:39;;;;;;;10.10;4.53;;;12.20;92.10;;;;;;5034595;28;20186;-67
2024/03/06 10:20:22;;;;;;;8.60;2.10;;;12.00;91.90;;;;;;5038290;28;20116;-68
2024/03/06 10:22:52;;;;;;;5.03;2.35;;;11.60;92.60;;;;;;5036174;28;20329;-67
2024/03/06 10:25:21;;;;;;;6.13;2.90;;;11.30;92.60;;;;;;5037282;28;20033;-67
2024/03/06 10:28:07;;;;;;;4.68;2.33;;;11.60;92.60;;;;;;5036324;28;20290;-68
2024/03/06 10:30:35;;;;;;;6.10;2.05;;;13.00;89.30;;;;;;5031628;28;20033;-73
2024/03/06 10:33:07;;;;;;;5.05;1.30;;;13.30;89.80;;;;;;5028266;28;20037;-70
2024/03/06 10:35:39;;;;;;;8.32;2.05;;;13.40;85.00;;;;;;5032380;28;20787;-68
2024/03/06 10:38:06;;;;;;;2.85;1.63;;;13.70;84.30;;;;;;5026392;28;20026;-68
2024/03/06 10:40:34;;;;;;;5.63;1.40;;;14.20;83.20;;;;;;5035121;28;20036;-67
2024/03/06 10:43:00;;;;;;;7.22;2.13;;;15.00;79.90;;;;;;5034537;28;20025;-70
2024/03/06 10:45:36;;;;;;;6.00;1.60;;;14.00;79.80;;;;;;5028250;28;20032;-74
2024/03/06 10:48:03;;;;;;;9.48;1.35;;;13.10;79.80;;;;;;5031856;28;20025;-69
2024/03/06 10:50:29;;;;;;;7.10;1.45;;;12.50;82.60;;;;;;5036373;28;20033;-73
2024/03/06 10:52:56;;;;;;;5.72;1.58;;;12.80;82.00;;;;;;5035455;28;20520;-76
2024/03/06 10:55:23;;;;;;;4.97;1.55;;;12.50;82.60;;;;;;5031756;28;20131;-72
2024/03/06 10:57:52;;;;;;;7.00;1.70;;;12.60;83.30;;;;;;5052491;28;20481;-69
2024/03/06 11:00:19;;;;;;;8.25;2.00;;;12.90;83.20;;;;;;5037472;28;20368;-71
2024/03/06 11:02:49;;;;;;;7.25;2.05;;;13.70;80.80;;;;;;5041330;28;20028;-72
2024/03/06 11:05:16;;;;;;;9.43;2.03;;;13.80;81.50;;;;;;5025378;28;20063;-75
2024/03/06 11:07:43;;;;;;;8.95;1.70;;;13.20;81.40;;;;;;5038757;28;20022;-72
2024/03/06 11:10:16;;;;;;;11.38;1.45;;;12.80;82.90;;;;;;5037125;28;20452;-68
2024/03/06 11:12:44;;;;;;;9.70;1.63;;;12.40;84.60;;;;;;5037641;28;20049;-68
2024/03/06 11:15:13;;;;;;;9.77;1.50;;;12.30;85.30;;;;;;5028453;28;20618;-68
2024/03/06 11:17:39;;;;;;;8.88;1.50;;;12.20;83.60;;;;;;5035432;28;20398;-68
2024/03/06 11:20:09;;;;;;;6.60;1.03;;;12.30;83.00;;;;;;5034935;28;20036;-67
2024/03/06 11:22:59;;;;;;;4.90;1.60;;;12.20;82.70;;;;;;5022810;28;20025;-68
2024/03/06 11:28:30;;;;;;;8.57;1.83;;;11.60;85.30;;;;;;5026702;28;20492;-70
2024/03/06 11:31:18;;;;;;;10.00;3.25;;;11.20;86.30;;;;;;5025565;28;20073;-68
2024/03/06 11:33:45;;;;;;;9.80;1.92;;;11.30;87.00;;;;;;5027556;28;20053;-66
2024/03/06 11:36:17;;;;;;;5.38;1.90;;;11.20;86.60;;;;;;5032281;28;20396;-69
2024/03/06 11:39:08;;;;;;;5.93;1.40;;;11.00;86.20;;;;;;5041121;28;20044;-67
2024/03/06 11:41:47;;;;;;;3.53;1.77;;;11.40;83.70;;;;;;5036622;28;20033;-66
2024/03/06 11:44:20;;;;;;;8.88;2.10;;;11.90;84.50;;;;;;5043395;28;20040;-66
2024/03/06 11:46:56;;;;;;;7.65;1.80;;;12.10;85.30;;;;;;5041529;28;20029;-67
2024/03/06 11:49:28;;;;;;;9.90;2.38;;;12.00;86.30;;;;;;5038401;28;20567;-66
2024/03/06 11:51:58;;;;;;;9.70;1.67;;;12.00;85.40;;;;;;5037039;28;20040;-66
2024/03/06 11:54:26;;;;;;;5.18;1.98;;;12.00;83.80;;;;;;5037500;28;20047;-68
2024/03/06 11:56:54;;;;;;;6.80;1.65;;;11.90;84.10;;;;;;5034793;28;20028;-66
2024/03/06 11:59:24;;;;;;;8.45;2.10;;;11.80;81.30;;;;;;5037994;28;20109;-67
2024/03/06 12:01:51;;;;;;;4.90;1.58;;;12.10;82.10;;;;;;5034996;28;20758;-69
2024/03/06 12:04:16;;;;;;;;;;;12.10;81.30;;;;;;5034002;28;20044;-69
2024/03/06 12:06:42;;;;;;;6.53;1.77;;;12.30;81.20;;;;;;5030975;28;19917;-68
2024/03/06 12:09:10;;;;;;;8.77;2.57;;;12.30;80.60;;;;;;5026773;28;20029;-67
2024/03/06 12:11:37;;;;;;;6.20;2.13;;;12.70;82.50;;;;;;5031513;28;20039;-70
2024/03/06 12:14:03;;;;;;;6.40;1.88;;;12.60;81.10;;;;;;5027037;28;20050;-67
2024/03/06 12:16:28;;;;;;;4.93;1.38;;;12.90;81.70;;;;;;5032456;28;20099;-67
2024/03/06 12:18:58;;;;;;;10.37;2.67;;;13.00;77.90;;;;;;5039740;28;20076;-66
2024/03/06 12:21:34;;;;;;;7.50;2.05;;;13.00;80.80;;;;;;5036430;28;20509;-68
2024/03/06 12:24:09;;;;;;;7.53;1.70;;;12.90;81.00;;;;;;5027492;28;20390;-67
2024/03/06 12:26:36;;;;;;;6.93;1.88;;;12.60;81.80;;;;;;5027749;28;20027;-71
2024/03/06 12:29:09;;;;;;;5.10;1.70;;;12.50;84.10;;;;;;5028878;28;20067;-70
2024/03/06 12:31:36;;;;;;;3.88;1.38;;;12.40;84.70;;;;;;5026388;28;20080;-72
2024/03/06 12:34:02;;;;;;;6.78;1.55;;;12.20;81.10;;;;;;5026195;28;20068;-74
2024/03/06 12:36:30;;;;;;;3.35;1.40;;;12.10;83.30;;;;;;5027279;28;20020;-73
2024/03/06 12:38:56;;;;;;;8.57;1.80;;;11.60;79.70;;;;;;5027605;28;20041;-73
2024/03/06 12:41:22;;;;;;;3.75;1.35;;;11.90;83.30;;;;;;5031018;28;20560;-74
2024/03/06 12:43:47;;;;;;;5.30;2.55;;;11.80;79.00;;;;;;5029110;28;20117;-68
2024/03/06 12:46:13;;;;;;;7.00;1.90;;;11.70;83.40;;;;;;5027433;28;20033;-67
2024/03/06 12:48:39;;;;;;;2.77;1.23;;;11.80;84.20;;;;;;5028001;28;20033;-70
2024/03/06 12:51:04;;;;;;;4.13;1.53;;;11.90;83.60;;;;;;5036327;28;20072;-67
2024/03/06 12:53:31;;;;;;;5.47;1.50;;;11.80;81.70;;;;;;5034702;28;20048;-67